Time;durP1;ratioP1;P1;durP2;ratioP2;P2;SDS_P1;SDS_P2;PMS_P1;PMS_P2;Temp;Humidity;BMP_temperature;BMP_pressure;BME280_temperature;BME280_humidity;BME280_pressure;Samples;Min_cycle;Max_cycle;Signal;HPM_P1;HPM_P2
2024/01/30 00:00:34;;;;;;;4.77;4.10;;;;;;;19.44;45.19;98899.69;5034048;28;20226;-26
2024/01/30 00:03:01;;;;;;;5.47;4.23;;;;;;;19.44;45.56;98899.69;5038595;28;20202;-25
2024/01/30 00:05:27;;;;;;;5.30;4.53;;;;;;;19.43;45.57;98903.03;5033069;28;20209;-26
2024/01/30 00:07:54;;;;;;;6.00;4.33;;;;;;;19.44;45.53;98899.69;5039518;28;20552;-25
2024/01/30 00:10:21;;;;;;;5.03;4.13;;;;;;;19.42;45.67;98896.19;5032327;28;20201;-25
2024/01/30 00:12:47;;;;;;;6.37;4.37;;;;;;;19.41;45.47;98900.41;5031927;28;20201;-25
2024/01/30 00:15:14;;;;;;;5.47;4.63;;;;;;;19.41;45.37;98902.06;5033533;28;20292;-25
2024/01/30 00:17:41;;;;;;;4.93;4.17;;;;;;;19.40;45.68;98898.66;5031854;28;20225;-25
2024/01/30 00:20:09;;;;;;;4.63;4.20;;;;;;;19.40;45.45;98908.84;5036627;28;20201;-24
2024/01/30 00:22:36;;;;;;;5.17;4.17;;;;;;;19.43;45.43;98910.69;5038566;28;20202;-24
2024/01/30 00:25:03;;;;;;;4.67;4.17;;;;;;;19.43;45.45;98913.25;5041127;28;20520;-23
2024/01/30 00:27:30;;;;;;;5.27;4.53;;;;;;;19.43;45.40;98914.13;5033073;28;20256;-25
2024/01/30 00:29:56;;;;;;;4.80;4.20;;;;;;;19.44;45.47;98912.44;5032836;28;20257;-24
2024/01/30 00:32:23;;;;;;;5.13;4.33;;;;;;;19.44;45.62;98913.34;5025902;28;20452;-24
2024/01/30 00:34:50;;;;;;;4.53;4.00;;;;;;;19.45;45.44;98916.78;5032289;28;20255;-26
2024/01/30 00:37:16;;;;;;;5.27;4.40;;;;;;;19.44;45.53;98915.88;5032030;28;20221;-25
2024/01/30 00:39:43;;;;;;;4.50;3.90;;;;;;;19.43;45.50;98908.16;5030688;28;20708;-24
2024/01/30 00:42:10;;;;;;;5.17;4.47;;;;;;;19.44;45.27;98915.00;5033922;28;20202;-25
2024/01/30 00:44:39;;;;;;;4.63;4.13;;;;;;;19.42;45.45;98914.91;5030073;28;20194;-25
2024/01/30 00:47:06;;;;;;;4.57;4.07;;;;;;;19.42;45.42;98920.00;5040121;28;20594;-26
2024/01/30 00:49:32;;;;;;;4.20;3.80;;;;;;;19.42;45.60;98921.69;5039122;28;20278;-26
2024/01/30 00:52:00;;;;;;;5.87;4.47;;;;;;;19.41;45.47;98923.34;5040928;28;20228;-25
2024/01/30 00:54:27;;;;;;;5.00;4.20;;;;;;;19.42;45.42;98929.34;5032269;28;20198;-26
2024/01/30 00:56:53;;;;;;;5.43;4.33;;;;;;;19.41;45.41;98928.44;5031771;28;20229;-24
2024/01/30 00:59:20;;;;;;;4.83;4.30;;;;;;;19.41;45.58;98931.00;5032336;28;20280;-24
2024/01/30 01:01:46;;;;;;;5.33;4.17;;;;;;;19.42;45.40;98926.78;5032029;28;20201;-26
2024/01/30 01:04:13;;;;;;;5.23;4.63;;;;;;;19.43;45.56;98931.09;5037558;28;20786;-25
2024/01/30 01:06:42;;;;;;;4.97;4.47;;;;;;;19.44;45.50;98927.75;5031918;28;20218;-24
2024/01/30 01:09:10;;;;;;;4.77;4.03;;;;;;;19.45;45.36;98924.44;5032181;28;20228;-26
2024/01/30 01:11:37;;;;;;;4.67;4.00;;;;;;;19.45;45.21;98924.44;5032427;28;20233;-26
2024/01/30 01:14:04;;;;;;;6.87;4.77;;;;;;;19.45;45.46;98919.31;5034901;28;20202;-24
2024/01/30 01:16:31;;;;;;;4.60;3.87;;;;;;;19.44;45.31;98922.66;5035599;28;20224;-26
2024/01/30 01:18:57;;;;;;;4.37;3.97;;;;;;;19.43;45.33;98924.34;5035130;28;20233;-26
2024/01/30 01:21:24;;;;;;;5.73;4.50;;;;;;;19.43;45.51;98931.09;5034376;28;20214;-25
2024/01/30 01:23:51;;;;;;;4.90;4.40;;;;;;;19.43;45.51;98929.44;5030178;28;20233;-24
2024/01/30 01:26:18;;;;;;;4.83;4.30;;;;;;;19.42;45.45;98925.09;5035665;28;20605;-25
2024/01/30 01:28:44;;;;;;;4.47;4.00;;;;;;;19.43;45.53;98936.19;5036873;28;20291;-26
2024/01/30 01:31:11;;;;;;;4.93;4.43;;;;;;;19.43;45.48;98928.53;5031859;28;20276;-25
2024/01/30 01:33:38;;;;;;;5.10;4.50;;;;;;;19.42;45.30;98939.53;5034520;28;20198;-24
2024/01/30 01:36:06;;;;;;;4.73;4.23;;;;;;;19.42;45.42;98937.84;5035614;28;20659;-25
2024/01/30 01:38:33;;;;;;;4.50;4.10;;;;;;;19.42;45.45;98927.66;5034853;28;20209;-26
2024/01/30 01:40:59;;;;;;;4.57;4.17;;;;;;;19.43;45.32;98926.00;5040219;28;20205;-25
2024/01/30 01:43:26;;;;;;;4.30;3.90;;;;;;;19.45;45.78;98929.53;5039444;28;20204;-25
2024/01/30 01:45:52;;;;;;;4.43;4.03;;;;;;;19.45;45.21;98929.53;5033011;28;20278;-25
2024/01/30 01:48:19;;;;;;;4.77;4.03;;;;;;;19.45;45.36;98930.38;5032524;28;20197;-25
2024/01/30 01:50:46;;;;;;;5.37;4.50;;;;;;;19.46;44.91;98926.19;5036650;28;20583;-26
2024/01/30 01:53:12;;;;;;;5.90;4.57;;;;;;;19.45;45.33;98917.63;5028230;28;20220;-25
2024/01/30 01:55:39;;;;;;;4.63;3.90;;;;;;;19.45;45.52;98922.72;5030673;28;20624;-26
2024/01/30 01:58:05;;;;;;;4.60;3.93;;;;;;;19.45;45.10;98919.31;5029906;28;20256;-26
2024/01/30 02:00:32;;;;;;;4.53;3.90;;;;;;;19.41;45.34;98908.06;5026492;28;20568;-25
2024/01/30 02:02:59;;;;;;;4.90;4.10;;;;;;;19.40;45.18;98913.97;5013103;28;20201;-26
2024/01/30 02:05:26;;;;;;;4.57;4.17;;;;;;;19.43;45.50;98915.78;5012239;28;20197;-26
2024/01/30 02:07:53;;;;;;;5.13;4.40;;;;;;;19.43;45.18;98921.78;5032769;28;20625;-25
2024/01/30 02:10:19;;;;;;;4.50;3.83;;;;;;;19.41;45.60;98918.25;5031244;28;20633;-26
2024/01/30 02:12:46;;;;;;;4.90;4.43;;;;;;;19.42;45.34;98911.50;5013272;28;20212;-26
2024/01/30 02:15:13;;;;;;;5.50;4.40;;;;;;;19.42;45.20;98907.25;5035136;28;20247;-25
2024/01/30 02:17:40;;;;;;;4.80;4.30;;;;;;;19.41;45.49;98905.50;5047157;28;20221;-26
2024/01/30 02:20:08;;;;;;;4.77;4.10;;;;;;;19.43;45.25;98908.16;5039714;28;20193;-26
2024/01/30 02:22:35;;;;;;;5.17;4.53;;;;;;;19.43;45.34;98903.03;5035406;28;20224;-26
2024/01/30 02:25:02;;;;;;;4.37;3.97;;;;;;;19.44;45.12;98905.69;5031184;28;20643;-26
2024/01/30 02:27:28;;;;;;;4.63;4.17;;;;;;;19.45;45.28;98904.88;5068939;22;20230;-25
2024/01/30 02:29:55;;;;;;;4.70;4.27;;;;;;;19.45;45.41;98896.38;5071567;28;20713;-25
2024/01/30 02:32:21;;;;;;;5.60;4.13;;;;;;;19.45;45.13;98896.38;5070576;28;20204;-25
2024/01/30 02:34:48;;;;;;;4.87;4.27;;;;;;;19.46;45.16;98903.22;5061459;28;20201;-25
2024/01/30 02:37:14;;;;;;;4.53;4.07;;;;;;;19.45;45.31;98901.47;5065890;28;20225;-25
2024/01/30 02:39:41;;;;;;;4.80;4.17;;;;;;;19.36;45.18;98886.50;5051536;28;20660;-25
2024/01/30 02:42:08;;;;;;;4.93;4.33;;;;;;;19.44;45.18;98902.25;5050679;28;20208;-28
2024/01/30 02:44:34;;;;;;;4.80;4.30;;;;;;;19.43;45.28;98903.94;5051108;28;20205;-27
2024/01/30 02:47:01;;;;;;;4.80;4.30;;;;;;;19.43;44.93;98906.50;5055815;28;20220;-25
2024/01/30 02:49:27;;;;;;;4.83;4.07;;;;;;;19.42;45.34;98906.41;5051169;28;20221;-25
2024/01/30 02:51:56;;;;;;;4.80;4.20;;;;;;;19.42;45.34;98914.91;5051462;28;20205;-25
2024/01/30 02:54:22;;;;;;;4.40;4.00;;;;;;;19.40;44.94;98908.84;5051022;28;20204;-26
2024/01/30 02:56:49;;;;;;;4.87;4.37;;;;;;;19.41;45.26;98905.50;5058425;28;20225;-25
2024/01/30 02:59:16;;;;;;;5.73;4.60;;;;;;;19.42;45.16;98904.72;5051146;28;20297;-25
2024/01/30 03:01:44;;;;;;;4.80;4.30;;;;;;;19.41;45.18;98895.31;5051811;28;20209;-25
2024/01/30 03:04:11;;;;;;;4.40;4.00;;;;;;;19.43;45.18;98903.03;5050829;28;20205;-26
2024/01/30 03:06:38;;;;;;;4.57;4.13;;;;;;;19.42;45.21;98898.75;5051035;28;20610;-25
2024/01/30 03:09:04;;;;;;;4.67;4.17;;;;;;;19.43;45.08;98893.75;5058431;28;20577;-25
2024/01/30 03:11:31;;;;;;;4.97;4.30;;;;;;;19.42;45.09;98883.44;5055070;28;20197;-25
2024/01/30 03:13:58;;;;;;;4.53;4.13;;;;;;;19.43;45.07;98896.28;5056774;28;20299;-25
2024/01/30 03:16:24;;;;;;;4.70;4.23;;;;;;;19.41;45.34;98890.22;5060267;28;20248;-25
2024/01/30 03:18:51;;;;;;;4.93;4.43;;;;;;;19.41;45.33;98887.66;5053717;28;20201;-25
2024/01/30 03:21:18;;;;;;;4.70;4.20;;;;;;;19.38;45.01;98879.84;5054225;28;20207;-26
2024/01/30 03:23:44;;;;;;;4.67;4.20;;;;;;;19.40;45.21;98882.47;5055101;28;20232;-25
2024/01/30 03:26:12;;;;;;;5.17;4.30;;;;;;;19.39;45.34;98885.81;5054336;28;20262;-26
2024/01/30 03:28:39;;;;;;;4.87;4.30;;;;;;;19.39;45.05;98888.38;5059519;28;20204;-25
2024/01/30 03:31:05;;;;;;;4.70;4.30;;;;;;;19.40;45.28;98890.13;5056476;28;20209;-25
2024/01/30 03:33:32;;;;;;;5.17;4.20;;;;;;;19.40;45.78;98882.47;5053559;28;20208;-31
2024/01/30 03:36:03;;;;;;;4.40;4.00;;;;;;;19.39;45.45;98894.31;5064778;28;20208;-25
2024/01/30 03:38:30;;;;;;;5.03;4.33;;;;;;;19.39;45.41;98886.69;5055111;28;20205;-25
2024/01/30 03:40:57;;;;;;;4.73;4.27;;;;;;;19.41;45.35;98887.66;5062489;28;20208;-26
2024/01/30 03:43:23;;;;;;;4.40;4.00;;;;;;;19.41;45.09;98887.66;5066061;28;20273;-26
2024/01/30 03:45:50;;;;;;;4.70;4.20;;;;;;;19.42;45.20;98889.41;5057827;28;20208;-25
2024/01/30 03:48:16;;;;;;;4.53;4.13;;;;;;;19.43;45.18;98888.63;5057846;28;20261;-25
2024/01/30 03:50:43;;;;;;;4.40;4.00;;;;;;;19.44;45.21;98894.59;5058345;28;20695;-28
2024/01/30 03:53:10;;;;;;;5.27;4.40;;;;;;;19.43;45.27;98890.31;5054204;28;20241;-25
2024/01/30 03:55:36;;;;;;;4.60;4.20;;;;;;;19.44;45.14;98889.50;5053321;28;20231;-25
2024/01/30 03:58:03;;;;;;;4.40;3.77;;;;;;;19.42;45.19;98884.31;5062368;28;20381;-26
2024/01/30 04:00:30;;;;;;;4.57;4.17;;;;;;;19.44;45.16;98889.50;5050930;28;20201;-27
2024/01/30 04:02:56;;;;;;;5.47;4.37;;;;;;;19.43;44.80;98882.66;5056788;28;20262;-25
2024/01/30 04:05:23;;;;;;;5.07;4.27;;;;;;;19.41;45.30;98881.66;5064266;28;20240;-25
2024/01/30 04:07:49;;;;;;;5.13;4.20;;;;;;;19.41;45.13;98881.66;5053528;28;20224;-29
2024/01/30 04:10:16;;;;;;;4.87;4.37;;;;;;;19.40;45.25;98874.81;5052928;28;20216;-25
2024/01/30 04:12:43;;;;;;;4.70;4.30;;;;;;;19.40;45.22;98880.81;5058221;28;20254;-25
2024/01/30 04:15:09;;;;;;;4.20;3.80;;;;;;;19.41;45.15;98889.31;5061113;28;20201;-25
2024/01/30 04:17:36;;;;;;;4.57;4.00;;;;;;;19.41;45.24;98879.13;5061867;28;20807;-25
2024/01/30 04:20:03;;;;;;;4.53;4.13;;;;;;;19.41;45.31;98886.78;5063805;28;20208;-25
2024/01/30 04:22:30;;;;;;;4.53;4.00;;;;;;;19.42;44.98;98891.09;5057084;28;20295;-25
2024/01/30 04:24:56;;;;;;;3.87;3.50;;;;;;;19.44;45.04;98895.50;5057496;28;20592;-27
2024/01/30 04:27:23;;;;;;;5.13;4.40;;;;;;;19.44;45.12;98895.50;5055454;28;20232;-26
2024/01/30 04:29:49;;;;;;;4.83;4.27;;;;;;;19.44;45.05;98885.28;5055699;28;20232;-25
2024/01/30 04:32:16;;;;;;;4.90;4.37;;;;;;;19.42;45.14;98884.31;5045172;28;20248;-25
2024/01/30 04:34:43;;;;;;;4.70;4.20;;;;;;;19.43;45.18;98882.66;5047697;28;20213;-27
2024/01/30 04:37:10;;;;;;;4.87;4.33;;;;;;;19.42;45.11;98886.84;5052941;28;20221;-25
2024/01/30 04:39:37;;;;;;;5.30;4.20;;;;;;;19.43;44.92;98890.31;5050632;28;20233;-26
2024/01/30 04:42:04;;;;;;;4.20;3.80;;;;;;;19.42;44.98;98876.66;5050785;28;20239;-25
2024/01/30 04:44:34;;;;;;;4.53;4.13;;;;;;;19.41;45.17;98886.78;5053104;28;20209;-25
2024/01/30 04:47:01;;;;;;;5.07;4.20;;;;;;;19.41;45.57;98891.88;5054267;28;20229;-26
2024/01/30 04:49:29;;;;;;;4.57;3.97;;;;;;;19.41;44.92;98887.66;5060577;28;20308;-25
2024/01/30 04:51:56;;;;;;;4.33;3.93;;;;;;;19.38;44.98;98884.94;5053473;28;20586;-25
2024/01/30 04:54:23;;;;;;;4.53;4.13;;;;;;;19.45;44.99;98904.03;5052289;28;20212;-25
2024/01/30 04:56:49;;;;;;;4.43;3.93;;;;;;;19.46;44.98;98893.91;5054739;28;20229;-26
2024/01/30 04:59:16;;;;;;;4.87;4.17;;;;;;;19.47;44.72;98884.59;5057109;28;20212;-25
2024/01/30 05:01:42;;;;;;;4.50;4.10;;;;;;;19.49;44.92;98895.75;5044927;28;20252;-25
2024/01/30 05:04:09;;;;;;;4.83;3.97;;;;;;;19.48;44.99;98889.78;5057403;28;20200;-26
2024/01/30 05:06:40;;;;;;;4.27;3.80;;;;;;;19.48;44.15;98899.97;5047438;28;20339;-25
2024/01/30 05:09:07;;;;;;;4.47;4.07;;;;;;;19.50;44.90;98894.97;5050639;28;20219;-25
2024/01/30 05:11:40;;;;;;;4.73;4.27;;;;;;;19.49;44.96;98888.09;5051426;28;20231;-25
2024/01/30 05:14:06;;;;;;;4.57;4.17;;;;;;;19.46;44.96;98891.38;5048993;28;20220;-27
2024/01/30 05:16:33;;;;;;;4.90;4.10;;;;;;;19.47;44.75;98897.31;5053747;28;20312;-25
2024/01/30 05:19:00;;;;;;;4.50;4.10;;;;;;;19.46;44.68;98898.13;5052040;28;20291;-25
2024/01/30 05:21:29;;;;;;;4.43;4.00;;;;;;;19.40;45.01;98888.47;5043285;28;20565;-25
2024/01/30 05:23:55;;;;;;;4.50;4.10;;;;;;;19.45;44.90;98894.69;5054270;28;20233;-25
2024/01/30 05:26:22;;;;;;;4.00;3.70;;;;;;;19.45;44.84;98901.47;5057359;28;20232;-25
2024/01/30 05:28:49;;;;;;;4.50;4.10;;;;;;;19.45;44.73;98899.78;5059782;28;20208;-25
2024/01/30 05:31:16;;;;;;;4.60;4.20;;;;;;;19.45;44.65;98897.25;5056541;28;20634;-25
2024/01/30 05:33:42;;;;;;;4.63;4.23;;;;;;;19.45;44.60;98894.69;5048992;28;20258;-25
2024/01/30 05:36:12;;;;;;;5.10;4.33;;;;;;;19.45;44.67;98899.78;5050700;28;20228;-25
2024/01/30 05:38:39;;;;;;;4.93;4.50;;;;;;;19.20;44.89;98849.78;5050583;28;20201;-26
2024/01/30 05:41:06;;;;;;;4.37;3.87;;;;;;;19.46;44.69;98899.03;5055248;28;20201;-25
2024/01/30 05:43:32;;;;;;;4.40;4.03;;;;;;;19.49;44.85;98903.41;5051477;28;20248;-25
2024/01/30 05:45:59;;;;;;;5.20;4.70;;;;;;;19.41;43.51;98891.88;5049932;28;20201;-25
2024/01/30 05:48:26;;;;;;;8.70;6.63;;;;;;;19.44;39.77;98907.34;5059135;28;20230;-27
2024/01/30 05:50:52;;;;;;;7.93;7.13;;;;;;;19.41;37.28;98905.50;5051273;28;20303;-25
2024/01/30 05:53:19;;;;;;;9.87;8.50;;;;;;;19.38;35.93;98895.13;5054290;28;20693;-25
2024/01/30 05:55:46;;;;;;;9.90;8.20;;;;;;;19.36;34.79;98903.47;5051816;28;20236;-25
2024/01/30 05:58:12;;;;;;;9.63;8.63;;;;;;;19.32;33.24;98904.06;5051589;28;20204;-26
2024/01/30 06:00:39;;;;;;;11.67;8.60;;;;;;;19.29;32.72;98904.78;5050507;28;20288;-25
2024/01/30 06:03:06;;;;;;;10.67;8.60;;;;;;;19.25;32.56;98904.47;5057953;28;20671;-27
2024/01/30 06:05:32;;;;;;;10.70;9.00;;;;;;;19.18;32.22;98908.31;5052110;28;20196;-25
2024/01/30 06:07:59;;;;;;;11.97;8.87;;;;;;;19.13;32.29;98919.03;5051485;28;20758;-25
2024/01/30 06:10:25;;;;;;;10.47;8.20;;;;;;;19.09;31.53;98923.03;5055178;28;20227;-25
2024/01/30 06:12:52;;;;;;;11.90;8.70;;;;;;;19.07;31.57;98923.75;5044970;28;20208;-25
2024/01/30 06:15:19;;;;;;;9.53;8.53;;;;;;;19.03;30.77;98925.22;5051281;28;20192;-27
2024/01/30 06:17:45;;;;;;;11.20;9.27;;;;;;;19.01;30.99;98924.22;5050414;28;20217;-25
2024/01/30 06:20:12;;;;;;;15.17;9.53;;;;;;;18.99;30.94;98924.94;5049656;28;20189;-25
2024/01/30 06:22:39;;;;;;;11.17;9.27;;;;;;;18.97;30.85;98921.41;5060837;28;20193;-25
2024/01/30 06:25:05;;;;;;;10.50;8.63;;;;;;;18.88;31.03;98910.66;5062236;28;20209;-25
2024/01/30 06:27:32;;;;;;;10.97;8.43;;;;;;;18.93;32.67;98929.66;5053179;28;20240;-26
2024/01/30 06:29:58;;;;;;;10.30;8.80;;;;;;;18.91;34.24;98929.56;5056183;28;20741;-25
2024/01/30 06:32:27;;;;;;;12.97;9.20;;;;;;;18.88;34.97;98926.81;5059162;28;20197;-25
2024/01/30 06:34:54;;;;;;;9.80;8.00;;;;;;;18.90;36.21;98927.81;5046214;28;20610;-26
2024/01/30 06:37:21;;;;;;;8.30;7.37;;;;;;;18.91;36.75;98929.56;5051139;28;20220;-25
2024/01/30 06:39:48;;;;;;;10.67;8.37;;;;;;;18.93;37.09;98934.75;5051039;28;20658;-26
2024/01/30 06:42:15;;;;;;;14.43;8.27;;;;;;;18.95;36.76;98923.00;5053443;28;20199;-27
2024/01/30 06:44:41;;;;;;;11.93;7.60;;;;;;;18.98;37.02;98933.38;5056110;28;20200;-25
2024/01/30 06:47:08;;;;;;;8.50;7.27;;;;;;;19.00;37.52;98936.88;5051437;28;20717;-25
2024/01/30 06:49:34;;;;;;;8.70;7.80;;;;;;;19.00;36.62;98934.34;5055596;28;20201;-26
2024/01/30 06:52:01;;;;;;;9.20;7.47;;;;;;;19.00;35.89;98921.59;5055943;28;20197;-25
2024/01/30 06:54:28;;;;;;;10.53;7.97;;;;;;;18.99;36.57;98933.47;5056448;28;20197;-26
2024/01/30 06:56:54;;;;;;;9.83;7.83;;;;;;;19.00;37.46;98935.22;5036692;28;20252;-25
2024/01/30 06:59:21;;;;;;;9.50;7.33;;;;;;;18.99;37.48;98930.94;5052695;28;20648;-29
2024/01/30 07:01:48;;;;;;;8.37;7.17;;;;;;;19.04;38.02;98943.94;5053633;28;20611;-25
2024/01/30 07:04:14;;;;;;;9.33;7.90;;;;;;;19.03;38.25;98927.75;5051978;28;20744;-25
2024/01/30 07:06:41;;;;;;;8.30;7.07;;;;;;;19.05;38.72;98938.06;5056625;28;20250;-25
2024/01/30 07:09:08;;;;;;;7.80;6.87;;;;;;;18.98;38.75;98931.69;5058775;28;20204;-26
2024/01/30 07:11:35;;;;;;;7.53;6.00;;;;;;;19.08;38.71;98940.78;5057212;28;20245;-25
2024/01/30 07:14:04;;;;;;;7.63;6.47;;;;;;;19.09;38.71;98943.44;5058821;28;20208;-28
2024/01/30 07:16:31;;;;;;;7.23;6.50;;;;;;;19.11;39.11;98948.63;5060254;28;20986;-26
2024/01/30 07:18:57;;;;;;;7.73;6.87;;;;;;;19.11;39.50;98935.88;5055987;28;20671;-27
2024/01/30 07:21:28;;;;;;;8.27;5.97;;;;;;;19.14;39.24;98942.06;5056912;28;20204;-25
2024/01/30 07:23:55;;;;;;;8.53;6.77;;;;;;;19.16;39.25;98937.91;5058012;28;20208;-26
2024/01/30 07:26:22;;;;;;;7.30;6.10;;;;;;;19.16;39.42;98943.00;5055449;28;20286;-25
2024/01/30 07:28:50;;;;;;;7.97;6.73;;;;;;;19.18;39.62;98938.88;5054951;28;20212;-26
2024/01/30 07:31:16;;;;;;;7.93;6.47;;;;;;;19.18;39.87;98940.53;5055392;28;20318;-26
2024/01/30 07:33:43;;;;;;;6.33;5.70;;;;;;;19.13;39.88;98930.06;5052008;28;20208;-25
2024/01/30 07:36:10;;;;;;;6.87;5.97;;;;;;;19.19;40.08;98943.19;5063100;28;20250;-26
2024/01/30 07:38:37;;;;;;;6.77;6.00;;;;;;;19.19;39.96;98948.28;5056148;28;20207;-25
2024/01/30 07:41:03;;;;;;;7.33;6.53;;;;;;;19.13;40.16;98935.16;5050571;28;20212;-25
2024/01/30 07:43:30;;;;;;;9.37;6.50;;;;;;;19.19;40.34;98955.94;5047312;28;20667;-25
2024/01/30 07:45:57;;;;;;;7.20;6.03;;;;;;;19.20;40.47;98951.72;5053963;28;20236;-26
2024/01/30 07:48:23;;;;;;;8.53;6.13;;;;;;;19.13;40.48;98947.91;5054916;28;20269;-25
2024/01/30 07:50:50;;;;;;;6.10;5.50;;;;;;;19.23;40.51;98957.91;5061939;28;20224;-25
2024/01/30 07:53:17;;;;;;;7.87;5.60;;;;;;;19.22;40.23;98960.34;5060064;28;20688;-25
2024/01/30 07:55:46;;;;;;;6.37;5.33;;;;;;;19.25;41.01;98963.97;5052004;28;20240;-26
2024/01/30 07:58:13;;;;;;;7.10;5.67;;;;;;;19.26;40.43;98968.28;5052128;28;20203;-25
2024/01/30 08:00:39;;;;;;;6.10;5.33;;;;;;;19.27;40.56;98967.53;5050993;28;20200;-26
2024/01/30 08:03:06;;;;;;;8.00;5.70;;;;;;;19.27;40.08;98974.31;5053846;28;20276;-26
2024/01/30 08:05:32;;;;;;;6.70;5.83;;;;;;;19.27;40.55;98964.09;5052091;28;20209;-25
2024/01/30 08:07:59;;;;;;;6.27;4.90;;;;;;;19.26;40.68;98970.84;5060071;28;20229;-25
2024/01/30 08:10:26;;;;;;;7.40;5.70;;;;;;;19.27;40.87;98969.22;5053656;28;20225;-25
2024/01/30 08:12:53;;;;;;;6.90;5.30;;;;;;;19.25;40.84;98971.63;5046814;28;20648;-27
2024/01/30 08:15:19;;;;;;;6.60;5.47;;;;;;;19.25;41.22;98981.81;5055127;28;20220;-25
2024/01/30 08:17:46;;;;;;;6.37;5.30;;;;;;;19.26;41.09;98980.13;5061079;28;20256;-26
2024/01/30 08:20:13;;;;;;;5.47;4.97;;;;;;;19.25;41.05;98978.38;5060669;28;20197;-25
2024/01/30 08:22:40;;;;;;;6.00;5.37;;;;;;;19.26;41.00;98981.03;5054103;28;20196;-34
2024/01/30 08:25:07;;;;;;;6.90;5.27;;;;;;;19.27;41.19;98976.84;5054507;28;20208;-25
2024/01/30 08:27:35;;;;;;;5.93;5.20;;;;;;;19.28;41.07;98976.94;5048973;28;20463;-25
2024/01/30 08:30:02;;;;;;;5.67;5.07;;;;;;;19.30;40.93;98977.91;5056679;28;20561;-25
2024/01/30 08:32:29;;;;;;;6.00;5.40;;;;;;;19.30;41.07;98975.34;5063385;28;20204;-25
2024/01/30 08:34:56;;;;;;;6.33;5.47;;;;;;;19.30;41.07;98977.03;5063448;28;20349;-25
2024/01/30 08:37:24;;;;;;;6.10;5.10;;;;;;;19.31;41.06;98968.59;5052440;28;20220;-25
2024/01/30 08:39:50;;;;;;;6.57;5.10;;;;;;;19.30;41.27;98970.25;5047721;28;20580;-26
2024/01/30 08:42:22;;;;;;;6.00;5.17;;;;;;;19.29;41.37;98968.50;5056370;28;20212;-27
2024/01/30 08:44:51;;;;;;;6.37;5.13;;;;;;;19.28;41.36;98965.84;5054633;28;20207;-25
2024/01/30 08:47:18;;;;;;;5.80;5.30;;;;;;;19.29;41.46;98970.16;5060490;28;20221;-25
2024/01/30 08:49:45;;;;;;;5.93;5.37;;;;;;;19.29;41.30;98978.69;5053553;28;20212;-25
2024/01/30 08:52:11;;;;;;;5.33;4.87;;;;;;;19.28;41.51;98974.41;5052351;28;20248;-31
2024/01/30 08:54:38;;;;;;;6.17;5.20;;;;;;;19.28;41.35;98969.31;5051315;28;20659;-25
2024/01/30 08:57:05;;;;;;;5.97;5.20;;;;;;;19.29;41.50;98970.16;5058052;28;20298;-25
2024/01/30 08:59:31;;;;;;;5.90;4.87;;;;;;;19.29;41.55;98971.06;5054048;28;20205;-25
2024/01/30 09:01:59;;;;;;;5.73;4.83;;;;;;;19.29;40.98;98968.50;5052012;28;20198;-27
2024/01/30 09:04:37;;;;;;;5.70;5.10;;;;;;;19.32;41.41;98971.25;5056512;28;20295;-25
2024/01/30 09:07:08;;;;;;;6.30;5.07;;;;;;;19.33;41.39;98969.59;5051017;28;20217;-26
2024/01/30 09:09:37;;;;;;;5.80;5.03;;;;;;;19.33;41.44;98973.00;5055802;28;20581;-25
2024/01/30 09:12:07;;;;;;;5.40;4.83;;;;;;;19.33;41.62;98970.44;5046355;28;20234;-25
2024/01/30 09:14:33;;;;;;;5.67;4.70;;;;;;;19.33;41.52;98973.00;5059449;28;20288;-25
2024/01/30 09:17:00;;;;;;;5.87;5.00;;;;;;;19.34;41.59;98981.53;5048913;28;20231;-27
2024/01/30 09:19:26;;;;;;;5.77;5.13;;;;;;;19.32;41.58;98978.00;5052238;28;20208;-25
2024/01/30 09:21:53;;;;;;;5.90;4.87;;;;;;;19.33;41.72;98977.22;5060074;28;20246;-25
2024/01/30 09:24:20;;;;;;;5.70;4.97;;;;;;;19.32;41.96;98978.88;5064038;28;20196;-26
2024/01/30 09:26:46;;;;;;;5.10;4.63;;;;;;;19.32;41.76;98978.88;5051108;28;20601;-25
2024/01/30 09:29:13;;;;;;;5.90;4.80;;;;;;;19.32;41.80;98976.34;5050795;28;20200;-25
2024/01/30 09:31:43;;;;;;;5.07;4.57;;;;;;;19.32;41.88;98968.69;5052025;28;20279;-25
2024/01/30 09:34:10;;;;;;;5.00;4.50;;;;;;;19.33;41.69;98969.59;5055509;28;20663;-25
2024/01/30 09:36:37;;;;;;;4.90;4.40;;;;;;;19.33;41.78;98970.44;5051774;28;20274;-25
2024/01/30 09:39:04;;;;;;;5.13;4.63;;;;;;;19.35;41.75;98971.44;5055831;28;20204;-26
2024/01/30 09:41:32;;;;;;;5.80;5.20;;;;;;;19.36;41.77;98972.31;5059343;28;20262;-25
2024/01/30 09:43:59;;;;;;;5.30;4.80;;;;;;;19.36;41.65;98974.88;5050865;28;20229;-25
2024/01/30 09:46:28;;;;;;;5.30;4.67;;;;;;;19.36;41.81;98977.41;5054552;28;20223;-25
2024/01/30 09:48:55;;;;;;;5.63;4.47;;;;;;;19.36;41.94;98977.41;5052072;28;20206;-25
2024/01/30 09:51:22;;;;;;;4.97;4.47;;;;;;;19.36;41.78;98978.28;5038684;28;20220;-25
2024/01/30 09:53:49;;;;;;;5.20;4.70;;;;;;;19.37;41.90;98980.06;5066220;28;20212;-26
2024/01/30 09:56:16;;;;;;;5.07;4.57;;;;;;;19.34;41.94;98976.44;5056814;28;20221;-25
2024/01/30 09:58:43;;;;;;;6.00;4.93;;;;;;;19.36;41.98;98985.06;5050893;28;20238;-25
2024/01/30 10:01:10;;;;;;;4.83;4.33;;;;;;;19.37;42.01;98991.91;5050222;28;20201;-27
2024/01/30 10:03:37;;;;;;;5.13;4.63;;;;;;;19.36;42.08;98983.38;5050568;28;20465;-25
2024/01/30 10:06:04;;;;;;;4.90;4.50;;;;;;;19.36;42.01;98980.81;5056186;28;20223;-25
2024/01/30 10:08:31;;;;;;;5.90;4.67;;;;;;;19.34;41.85;98974.78;5051515;28;20201;-25
2024/01/30 10:10:58;;;;;;;4.73;4.30;;;;;;;19.37;41.94;98980.06;5055400;28;20259;-25
2024/01/30 10:13:25;;;;;;;5.07;4.17;;;;;;;19.37;42.65;98971.50;5047133;28;20254;-26
2024/01/30 10:15:53;;;;;;;4.40;4.00;;;;;;;19.32;42.16;98963.59;5056029;28;20578;-25
2024/01/30 10:18:20;;;;;;;5.27;4.73;;;;;;;19.38;41.90;98971.59;5055117;28;20197;-33
2024/01/30 10:20:46;;;;;;;4.77;4.20;;;;;;;19.38;41.91;98965.63;5052190;28;20209;-25
2024/01/30 10:23:13;;;;;;;4.70;4.30;;;;;;;19.40;42.09;98967.50;5054179;28;20200;-25
2024/01/30 10:25:39;;;;;;;5.10;4.60;;;;;;;19.40;41.95;98969.16;5053525;28;20690;-25
2024/01/30 10:28:06;;;;;;;5.30;4.33;;;;;;;19.42;42.03;98965.03;5052232;28;20263;-25
2024/01/30 10:30:33;;;;;;;5.47;4.93;;;;;;;19.40;42.08;98964.94;5052368;28;20201;-25
2024/01/30 10:32:59;;;;;;;5.90;4.57;;;;;;;19.40;41.93;98951.31;5058977;28;20639;-25
2024/01/30 10:35:26;;;;;;;5.27;4.43;;;;;;;19.40;42.45;98958.94;5050450;28;20224;-33
2024/01/30 10:37:53;;;;;;;5.20;4.70;;;;;;;19.37;42.26;98943.47;5060493;28;20228;-25
2024/01/30 10:40:19;;;;;;;5.27;4.30;;;;;;;19.38;42.32;98947.78;5039657;28;20599;-25
2024/01/30 10:42:46;;;;;;;4.53;4.13;;;;;;;19.41;42.29;98947.97;5045673;28;20237;-25
2024/01/30 10:45:13;;;;;;;4.90;4.40;;;;;;;19.40;42.28;98943.66;5050862;28;20207;-27
2024/01/30 10:47:42;;;;;;;4.77;4.17;;;;;;;19.39;42.28;98934.25;5052474;28;20308;-25
2024/01/30 10:50:10;;;;;;;4.83;4.27;;;;;;;19.33;42.15;98927.09;5045581;28;20648;-25
2024/01/30 10:52:37;;;;;;;4.47;4.07;;;;;;;19.39;42.30;98934.25;5047683;28;20221;-25
2024/01/30 10:55:05;;;;;;;4.90;4.40;;;;;;;19.38;42.34;98940.13;5049456;28;20240;-25
2024/01/30 10:57:33;;;;;;;5.83;4.37;;;;;;;19.36;42.28;98932.38;5053746;28;20239;-25
2024/01/30 11:00:00;;;;;;;5.37;4.57;;;;;;;19.41;42.24;98935.22;5041494;28;20205;-25
2024/01/30 11:02:27;;;;;;;4.73;4.33;;;;;;;19.42;42.13;98937.00;5054993;28;20696;-30
2024/01/30 11:04:57;;;;;;;4.50;4.10;;;;;;;19.42;42.18;98920.00;5050576;28;20247;-25
2024/01/30 11:07:26;;;;;;;4.53;4.13;;;;;;;19.44;42.25;98928.63;5045868;28;20607;-25
2024/01/30 11:10:03;;;;;;;4.97;4.30;;;;;;;19.43;42.23;98921.78;5050593;28;20248;-28
2024/01/30 11:12:33;;;;;;;6.83;4.80;;;;;;;19.45;42.25;98921.88;5049826;28;20643;-25
2024/01/30 11:15:07;;;;;;;7.87;4.90;;;;;;;19.44;42.22;98917.53;5047790;28;20212;-26
2024/01/30 11:17:50;;;;;;;7.40;5.13;;;;;;;19.44;42.37;98913.34;5050530;28;20224;-25
2024/01/30 11:20:31;;;;;;;9.00;6.13;;;;;;;19.44;42.33;98927.75;5046528;28;20211;-25
2024/01/30 11:22:58;;;;;;;9.87;6.80;;;;;;;19.45;41.54;98906.56;5050439;28;20270;-25
2024/01/30 11:25:25;;;;;;;9.53;7.20;;;;;;;19.43;41.06;98903.94;5050268;28;20208;-26
2024/01/30 11:27:53;;;;;;;10.10;7.47;;;;;;;19.42;41.55;98914.91;5052851;28;20275;-25
2024/01/30 11:30:27;;;;;;;8.97;6.70;;;;;;;19.40;41.78;98913.97;5049961;28;20201;-26